Time;durP1;ratioP1;P1;durP2;ratioP2;P2;SDS_P1;SDS_P2;PMS_P1;PMS_P2;Temp;Humidity;BMP_temperature;BMP_pressure;BME280_temperature;BME280_humidity;BME280_pressure;Samples;Min_cycle;Max_cycle;Signal;HPM_P1;HPM_P2
2022/07/22 00:00:27;;;;;;;18.33;9.47;;;;;;;22.73;59.90;97106.59;4794559;29;20297;-72
2022/07/22 00:02:54;;;;;;;10.73;7.40;;;;;;;22.54;60.29;97102.16;4799482;29;20252;-72
2022/07/22 00:05:21;;;;;;;9.20;6.70;;;;;;;22.43;61.01;97097.88;4799419;29;20207;-72
2022/07/22 00:07:49;;;;;;;7.87;6.27;;;;;;;22.41;61.06;97098.97;4801871;29;20693;-71
2022/07/22 00:10:16;;;;;;;11.23;6.27;;;;;;;22.45;61.06;97103.84;4803181;29;20209;-72
2022/07/22 00:12:43;;;;;;;9.30;6.00;;;;;;;22.65;60.78;97097.56;4802452;29;20206;-72
2022/07/22 00:15:10;;;;;;;9.43;6.63;;;;;;;22.77;60.43;97100.91;4803049;29;20203;-73
2022/07/22 00:17:37;;;;;;;11.57;6.63;;;;;;;23.01;60.27;97097.75;4802319;29;20244;-72
2022/07/22 00:20:06;;;;;;;6.30;5.40;;;;;;;22.90;60.38;97097.91;4802688;29;20603;-73
2022/07/22 00:22:33;;;;;;;10.63;6.03;;;;;;;23.16;59.48;97091.81;4802612;29;20205;-73
2022/07/22 00:25:00;;;;;;;6.97;6.17;;;;;;;23.38;58.94;97091.47;4802287;29;20362;-72
2022/07/22 00:27:29;;;;;;;7.47;5.70;;;;;;;23.61;58.02;97091.91;4802843;29;20213;-73
2022/07/22 00:29:56;;;;;;;9.33;5.90;;;;;;;23.80;57.05;97090.94;4802025;29;20207;-72
2022/07/22 00:32:23;;;;;;;11.93;6.77;;;;;;;23.79;57.30;97084.81;4786731;29;20210;-73
2022/07/22 00:34:50;;;;;;;8.23;5.67;;;;;;;23.73;57.01;97084.56;4802427;29;20202;-72
2022/07/22 00:37:17;;;;;;;11.30;6.83;;;;;;;23.61;57.04;97093.69;4802525;29;20219;-73
2022/07/22 00:39:44;;;;;;;10.30;7.00;;;;;;;23.57;57.45;97090.53;4802509;29;20300;-72
2022/07/22 00:42:11;;;;;;;13.67;7.13;;;;;;;23.53;57.51;97097.09;4802278;29;20217;-71
2022/07/22 00:44:39;;;;;;;11.23;7.63;;;;;;;23.50;57.33;97093.91;4802814;29;20789;-72
2022/07/22 00:47:07;;;;;;;20.13;7.60;;;;;;;23.29;57.86;97094.13;4785645;29;20273;-71
2022/07/22 00:49:34;;;;;;;12.77;7.97;;;;;;;23.13;58.44;97093.94;4802722;29;20269;-71
2022/07/22 00:52:01;;;;;;;14.03;8.27;;;;;;;22.71;59.09;97093.53;4802087;29;20597;-72
2022/07/22 00:54:28;;;;;;;14.97;8.97;;;;;;;22.33;60.16;97089.16;4802168;29;20218;-70
2022/07/22 00:56:55;;;;;;;20.97;10.83;;;;;;;22.04;61.35;97095.41;4785542;29;20553;-72
2022/07/22 00:59:22;;;;;;;19.67;10.87;;;;;;;21.86;61.84;97097.91;4792831;29;20233;-71
2022/07/22 01:01:50;;;;;;;16.47;9.70;;;;;;;21.74;62.66;97093.72;4781404;29;20215;-70
2022/07/22 01:04:18;;;;;;;22.07;11.90;;;;;;;22.04;61.85;97093.59;4801446;29;20260;-72
2022/07/22 01:06:46;;;;;;;16.40;9.97;;;;;;;22.07;61.42;97090.66;4802324;29;20222;-72
2022/07/22 01:09:14;;;;;;;19.27;10.90;;;;;;;22.28;61.08;97086.09;4802015;29;20201;-72
2022/07/22 01:11:41;;;;;;;19.80;9.40;;;;;;;22.14;61.42;97089.16;4801949;29;20308;-73
2022/07/22 01:14:08;;;;;;;13.97;8.13;;;;;;;21.88;62.33;97084.59;4801950;29;20226;-72
2022/07/22 01:16:36;;;;;;;11.97;7.53;;;;;;;21.89;62.25;97092.34;4801539;29;20240;-73
2022/07/22 01:19:04;;;;;;;13.27;8.27;;;;;;;22.16;61.58;97097.75;4789058;29;20249;-70
2022/07/22 01:21:32;;;;;;;10.37;7.30;;;;;;;21.98;62.02;97088.88;4801480;29;20225;-72
2022/07/22 01:23:59;;;;;;;10.80;8.30;;;;;;;21.80;62.70;97093.16;4800842;29;20296;-73
2022/07/22 01:26:27;;;;;;;12.37;8.30;;;;;;;21.46;63.85;97079.50;4801358;29;20221;-73
2022/07/22 01:28:54;;;;;;;11.87;8.20;;;;;;;21.39;64.18;97086.28;4801531;29;20203;-72
2022/07/22 01:31:21;;;;;;;9.70;7.23;;;;;;;21.43;63.74;97076.31;4785482;29;20243;-72
2022/07/22 01:33:48;;;;;;;17.23;8.00;;;;;;;21.21;64.53;97073.88;4783281;30;20217;-71
2022/07/22 01:36:16;;;;;;;16.67;7.40;;;;;;;21.31;64.57;97074.78;4782600;29;20211;-72
2022/07/22 01:38:43;;;;;;;12.30;7.30;;;;;;;21.37;63.98;97075.03;4781794;29;20719;-72
2022/07/22 01:41:10;;;;;;;10.57;6.53;;;;;;;21.42;63.72;97072.00;4782309;29;20329;-71
2022/07/22 01:43:38;;;;;;;10.80;6.23;;;;;;;21.32;63.98;97073.78;4767303;30;20296;-72
2022/07/22 01:46:06;;;;;;;9.97;6.90;;;;;;;21.31;63.59;97066.88;4783525;30;20217;-72
2022/07/22 01:48:37;;;;;;;14.03;7.40;;;;;;;21.46;63.35;97076.03;4782093;30;20303;-73
2022/07/22 01:51:04;;;;;;;12.10;8.13;;;;;;;21.78;62.23;97079.28;4766840;30;20235;-73
2022/07/22 01:53:31;;;;;;;10.73;8.03;;;;;;;21.77;62.22;97077.59;4767340;30;20460;-72
2022/07/22 01:55:59;;;;;;;14.47;8.37;;;;;;;21.57;62.76;97073.28;4782861;29;20210;-72
2022/07/22 01:58:28;;;;;;;11.60;8.27;;;;;;;21.28;63.80;97070.59;4767087;30;20228;-72
2022/07/22 02:00:56;;;;;;;10.27;7.70;;;;;;;21.35;63.84;97063.81;4767001;29;20348;-72
2022/07/22 02:03:23;;;;;;;11.50;7.87;;;;;;;21.32;63.84;97064.09;4781697;30;20313;-72
2022/07/22 02:05:51;;;;;;;13.67;8.63;;;;;;;21.14;64.68;97062.25;4781951;29;20216;-70
2022/07/22 02:08:24;;;;;;;13.00;7.97;;;;;;;21.19;64.57;97067.91;4783439;29;20299;-70
2022/07/22 02:11:10;;;;;;;9.47;7.43;;;;;;;21.22;64.26;97070.31;4801179;29;20256;-70
2022/07/22 02:13:49;;;;;;;11.03;7.40;;;;;;;20.92;65.29;97076.38;4784722;29;20213;-70
2022/07/22 02:16:16;;;;;;;8.90;7.47;;;;;;;20.79;65.77;97062.63;4784195;29;20696;-70
2022/07/22 02:18:48;;;;;;;9.17;7.50;;;;;;;20.94;65.76;97070.03;4784537;29;20212;-72
2022/07/22 02:21:15;;;;;;;10.83;8.97;;;;;;;20.77;66.38;97072.47;4784150;29;20246;-71
2022/07/22 02:23:42;;;;;;;12.10;9.57;;;;;;;20.75;66.53;97075.22;4799740;29;20234;-72
2022/07/22 02:26:10;;;;;;;11.07;8.73;;;;;;;20.46;67.58;97068.16;4783866;29;20259;-72
2022/07/22 02:28:37;;;;;;;12.57;8.77;;;;;;;20.50;67.68;97078.28;4784479;29;20289;-72
2022/07/22 02:31:04;;;;;;;12.80;9.23;;;;;;;20.39;68.45;97072.25;4800168;29;20679;-71
2022/07/22 02:33:32;;;;;;;9.87;8.53;;;;;;;20.49;67.89;97076.59;4784464;29;20205;-70
2022/07/22 02:36:00;;;;;;;10.20;9.10;;;;;;;20.47;68.23;97081.16;4784306;29;20230;-69
2022/07/22 02:38:27;;;;;;;11.13;8.87;;;;;;;20.58;67.95;97078.47;4783708;29;20667;-70
2022/07/22 02:40:54;;;;;;;10.27;8.77;;;;;;;20.63;67.58;97078.91;4784626;29;20234;-70
2022/07/22 02:43:21;;;;;;;12.43;8.80;;;;;;;20.87;66.50;97078.59;4798816;29;20727;-69
2022/07/22 02:45:48;;;;;;;15.83;8.63;;;;;;;21.06;65.98;97076.91;4799204;29;20211;-70
2022/07/22 02:48:16;;;;;;;11.30;7.83;;;;;;;21.39;65.15;97085.47;4783956;29;20595;-69
2022/07/22 02:50:47;;;;;;;15.27;9.27;;;;;;;21.67;64.14;97082.88;4783975;29;20221;-69
2022/07/22 02:53:19;;;;;;;11.20;8.37;;;;;;;21.66;63.51;97089.09;4799156;29;20679;-70
2022/07/22 02:55:46;;;;;;;9.47;7.23;;;;;;;21.35;64.07;97087.50;4783542;29;20703;-70
2022/07/22 02:58:13;;;;;;;12.13;7.87;;;;;;;21.02;65.09;97074.66;4800504;29;20274;-70
2022/07/22 03:00:43;;;;;;;12.33;8.43;;;;;;;20.77;65.96;97073.28;4799822;29;20243;-70
2022/07/22 03:03:10;;;;;;;12.33;8.03;;;;;;;20.47;66.64;97064.53;4784057;29;20588;-69
2022/07/22 03:05:37;;;;;;;12.03;8.27;;;;;;;20.51;66.82;97079.94;4783963;29;20277;-69
2022/07/22 03:08:37;;;;;;;11.30;8.40;;;;;;;20.46;67.09;97081.31;4759388;29;20215;-69
2022/07/22 03:11:04;;;;;;;12.80;7.37;;;;;;;20.63;66.52;97078.91;4784441;29;20209;-69
2022/07/22 03:13:32;;;;;;;10.40;7.70;;;;;;;20.95;65.25;97082.25;4799191;29;20286;-71
2022/07/22 03:16:00;;;;;;;12.47;7.70;;;;;;;21.20;64.76;97083.63;4790738;29;20699;-69
2022/07/22 03:18:27;;;;;;;15.83;8.97;;;;;;;21.41;64.39;97080.91;4801715;29;20210;-69
2022/07/22 03:20:55;;;;;;;9.33;7.03;;;;;;;21.43;64.00;97084.22;4801663;29;20245;-69
2022/07/22 03:23:22;;;;;;;8.20;7.30;;;;;;;21.49;64.28;97089.78;4801736;29;20203;-69
2022/07/22 03:25:49;;;;;;;14.70;7.90;;;;;;;21.39;64.72;97091.53;4817666;29;20209;-69
2022/07/22 03:28:17;;;;;;;12.53;7.73;;;;;;;21.43;64.25;97086.88;4816939;29;20276;-69
2022/07/22 03:30:44;;;;;;;11.20;7.57;;;;;;;21.64;63.85;97091.03;4789450;29;20213;-69
2022/07/22 03:33:12;;;;;;;9.53;7.20;;;;;;;21.69;63.54;97096.75;4789522;29;20210;-69
2022/07/22 03:35:40;;;;;;;15.43;7.73;;;;;;;21.63;63.65;97096.47;4775498;29;20211;-69
2022/07/22 03:38:07;;;;;;;12.87;7.27;;;;;;;21.41;64.18;97097.50;4773344;29;20196;-69
2022/07/22 03:40:36;;;;;;;12.43;8.60;;;;;;;21.58;63.90;97088.13;4773064;29;20271;-69
2022/07/22 03:43:03;;;;;;;10.93;7.87;;;;;;;21.62;63.54;97092.97;4777255;29;20209;-69
2022/07/22 03:45:31;;;;;;;12.63;8.50;;;;;;;21.64;63.34;97088.41;4786395;29;20268;-69
2022/07/22 03:47:58;;;;;;;9.60;7.13;;;;;;;22.14;62.41;97083.03;4786778;29;20740;-69
2022/07/22 03:50:28;;;;;;;10.33;8.40;;;;;;;22.24;61.17;97087.34;4786945;29;20216;-68
2022/07/22 03:52:55;;;;;;;11.53;8.00;;;;;;;22.07;61.79;97080.13;4803066;29;20200;-68
2022/07/22 03:55:23;;;;;;;12.43;8.17;;;;;;;22.12;61.69;97091.09;4786919;29;20213;-68
2022/07/22 03:57:53;;;;;;;11.00;8.27;;;;;;;22.54;60.12;97084.53;4787082;29;20644;-68
2022/07/22 04:00:24;;;;;;;12.73;8.93;;;;;;;23.02;59.15;97079.09;4786362;29;20270;-69
2022/07/22 04:02:51;;;;;;;13.07;8.77;;;;;;;23.41;57.16;97083.25;4786923;29;20270;-68
2022/07/22 04:05:36;;;;;;;18.43;10.13;;;;;;;23.55;56.63;97086.38;4786466;29;20210;-70
2022/07/22 04:08:04;;;;;;;16.17;9.83;;;;;;;23.38;57.36;97088.84;4795981;29;20283;-69
2022/07/22 04:10:31;;;;;;;14.80;10.83;;;;;;;23.52;57.19;97092.78;4792026;29;20653;-68
2022/07/22 04:12:58;;;;;;;18.17;11.63;;;;;;;23.79;56.20;97084.81;4786202;29;20735;-69
2022/07/22 04:15:41;;;;;;;16.00;10.53;;;;;;;24.01;55.78;97088.81;4817325;29;20606;-70
2022/07/22 04:18:08;;;;;;;20.83;11.47;;;;;;;23.98;55.79;97084.66;4783026;29;20240;-72
2022/07/22 04:20:35;;;;;;;15.07;10.80;;;;;;;23.59;56.52;97087.72;4784748;29;20245;-69
2022/07/22 04:23:22;;;;;;;18.70;11.40;;;;;;;23.08;58.26;97089.06;4784095;29;20218;-71
2022/07/22 04:25:58;;;;;;;19.37;12.33;;;;;;;22.77;59.54;97089.50;4782960;29;20737;-70
2022/07/22 04:28:24;;;;;;;18.77;12.53;;;;;;;22.82;59.35;97092.53;4768921;30;20205;-70
2022/07/22 04:30:54;;;;;;;18.23;12.57;;;;;;;22.49;61.03;97091.19;4765377;30;20306;-69
2022/07/22 04:33:21;;;;;;;15.63;12.40;;;;;;;22.47;61.03;97093.13;4767162;30;20311;-72
2022/07/22 04:35:49;;;;;;;15.47;10.43;;;;;;;22.47;61.23;97072.03;4750874;30;20207;-70
2022/07/22 04:38:18;;;;;;;17.90;12.17;;;;;;;22.86;60.49;97094.72;4750521;30;20644;-71
2022/07/22 04:41:10;;;;;;;23.60;13.20;;;;;;;23.11;59.78;97104.66;4763915;30;20246;-71
2022/07/22 04:43:37;;;;;;;20.80;13.00;;;;;;;23.20;59.37;97097.66;4764439;30;20208;-71
2022/07/22 04:46:07;;;;;;;14.97;9.17;;;;;;;23.30;59.82;97098.44;4750490;30;20293;-71
2022/07/22 04:48:38;;;;;;;11.60;7.23;;;;;;;23.12;60.28;97093.09;4750293;30;20370;-71
2022/07/22 04:51:05;;;;;;;6.87;6.17;;;;;;;23.18;59.94;97083.78;4764930;30;20214;-71
2022/07/22 04:53:34;;;;;;;10.67;7.00;;;;;;;23.32;59.82;97085.94;4764554;30;20213;-71
2022/07/22 04:56:17;;;;;;;7.43;6.33;;;;;;;23.34;59.59;97092.75;4749231;30;20678;-71
2022/07/22 04:58:45;;;;;;;9.47;6.47;;;;;;;23.22;60.30;97090.41;4764943;30;20686;-70
2022/07/22 05:01:13;;;;;;;8.13;6.17;;;;;;;23.28;59.89;97090.66;4765368;30;20243;-71
2022/07/22 05:03:42;;;;;;;7.03;6.33;;;;;;;23.77;58.93;97092.06;4764875;30;20273;-69
2022/07/22 05:06:11;;;;;;;10.70;6.30;;;;;;;24.30;57.07;97100.00;4764567;30;20227;-70
2022/07/22 05:08:41;;;;;;;8.87;7.37;;;;;;;24.46;56.79;97094.84;4735266;30;20680;-71
2022/07/22 05:11:08;;;;;;;10.13;6.90;;;;;;;24.31;57.57;97101.69;4764830;30;20275;-70
2022/07/22 05:13:35;;;;;;;10.63;6.60;;;;;;;24.17;57.34;97104.88;4764062;30;20209;-70
2022/07/22 05:16:04;;;;;;;8.30;6.23;;;;;;;23.89;59.00;97101.44;4764923;30;20669;-71
2022/07/22 05:18:34;;;;;;;13.03;7.13;;;;;;;24.15;57.99;97102.38;4782025;29;20216;-70
2022/07/22 05:21:02;;;;;;;14.07;7.93;;;;;;;24.80;56.86;97089.63;4766925;30;20729;-71
2022/07/22 05:23:30;;;;;;;10.43;7.50;;;;;;;25.38;54.39;97097.72;4783047;29;20243;-71
2022/07/22 05:25:57;;;;;;;12.83;7.53;;;;;;;25.26;54.78;97094.53;4781603;29;20710;-70
2022/07/22 05:28:24;;;;;;;9.73;6.77;;;;;;;25.63;54.45;97102.97;4767334;30;20202;-71
2022/07/22 05:30:51;;;;;;;12.00;7.30;;;;;;;25.82;54.25;97102.69;4766683;29;20580;-71
2022/07/22 05:33:19;;;;;;;10.17;6.90;;;;;;;26.05;53.01;97115.34;4781993;29;20228;-70
2022/07/22 05:36:05;;;;;;;11.97;6.83;;;;;;;26.04;53.80;97108.38;4766762;30;20256;-71
2022/07/22 05:38:37;;;;;;;13.37;7.03;;;;;;;26.18;52.30;97097.97;4781544;29;20675;-71
2022/07/22 05:41:05;;;;;;;10.27;7.20;;;;;;;26.23;52.05;97108.94;4781456;29;20249;-71
2022/07/22 05:43:32;;;;;;;12.80;7.80;;;;;;;26.23;51.82;97100.13;4780921;29;20210;-71
2022/07/22 05:46:01;;;;;;;11.50;7.33;;;;;;;26.53;52.50;97088.81;4767194;29;20684;-70
2022/07/22 05:48:28;;;;;;;11.67;7.37;;;;;;;27.11;51.08;97097.38;4766303;30;20709;-72
2022/07/22 05:50:55;;;;;;;12.10;7.53;;;;;;;27.35;48.93;97099.97;4782625;29;20211;-71
2022/07/22 05:53:23;;;;;;;13.67;6.67;;;;;;;27.64;47.66;97085.19;4766510;30;20215;-71
2022/07/22 05:55:50;;;;;;;10.80;7.47;;;;;;;27.64;48.36;97093.19;4782436;29;20207;-70
2022/07/22 05:58:17;;;;;;;11.70;6.50;;;;;;;27.78;48.15;97101.25;4781183;29;20196;-72
2022/07/22 06:00:44;;;;;;;10.73;6.13;;;;;;;27.52;48.06;97089.25;4780475;29;20315;-71
2022/07/22 06:03:12;;;;;;;9.90;5.60;;;;;;;27.98;47.46;97091.03;4781286;29;20235;-70
2022/07/22 06:05:45;;;;;;;14.60;10.00;;;;;;;28.05;46.67;97091.94;4765258;30;20215;-71
2022/07/22 06:08:12;;;;;;;11.83;6.83;;;;;;;28.34;46.64;97094.72;4782640;29;20234;-71
2022/07/22 06:10:50;;;;;;;12.60;6.77;;;;;;;28.42;45.44;97097.31;4766197;29;20293;-71
2022/07/22 06:13:19;;;;;;;10.27;6.90;;;;;;;28.58;45.40;97099.91;4766101;30;20585;-71
2022/07/22 06:15:47;;;;;;;14.20;7.73;;;;;;;28.51;45.12;97104.25;4766182;29;20727;-71
2022/07/22 06:18:15;;;;;;;13.57;6.20;;;;;;;28.50;44.98;97091.13;4780228;29;20258;-71
2022/07/22 06:20:43;;;;;;;8.13;5.73;;;;;;;28.33;45.02;97106.41;4781168;29;20314;-71
2022/07/22 06:23:10;;;;;;;9.07;6.10;;;;;;;28.45;45.34;97096.97;4782071;29;20199;-71
2022/07/22 06:25:37;;;;;;;9.63;5.60;;;;;;;28.40;44.38;97091.34;4782473;29;20624;-70
2022/07/22 06:28:17;;;;;;;6.53;5.10;;;;;;;28.47;45.02;97097.63;4780959;29;20211;-71
2022/07/22 06:30:44;;;;;;;9.13;6.07;;;;;;;28.59;44.88;97090.88;4780317;29;20214;-72
2022/07/22 06:33:13;;;;;;;11.73;6.43;;;;;;;28.65;44.87;97095.50;4766326;30;20211;-72
2022/07/22 06:35:40;;;;;;;7.17;6.00;;;;;;;28.91;43.64;97089.75;4779941;29;20598;-72
2022/07/22 06:38:07;;;;;;;10.60;6.13;;;;;;;28.74;44.32;97083.75;4765773;29;20267;-70
2022/07/22 06:40:54;;;;;;;12.63;6.50;;;;;;;28.64;44.65;97088.53;4764982;30;20321;-72
2022/07/22 06:43:42;;;;;;;9.10;6.27;;;;;;;28.63;44.48;97097.50;4780906;29;20207;-73
2022/07/22 06:46:41;;;;;;;11.47;6.40;;;;;;;28.73;44.12;97086.59;4751312;29;20219;-72
2022/07/22 06:49:10;;;;;;;15.17;6.50;;;;;;;28.90;44.46;97088.09;4765443;30;20226;-71
2022/07/22 06:51:40;;;;;;;10.00;7.07;;;;;;;29.38;43.53;97097.41;4765291;29;20212;-72
2022/07/22 06:54:07;;;;;;;10.70;6.20;;;;;;;29.36;42.76;97088.75;4765222;29;20242;-72
2022/07/22 06:56:34;;;;;;;13.37;6.23;;;;;;;28.89;43.79;97081.91;4765026;30;20214;-71
2022/07/22 06:59:02;;;;;;;15.50;6.40;;;;;;;29.03;43.68;97087.44;4780621;29;20218;-73
2022/07/22 07:01:29;;;;;;;8.63;6.47;;;;;;;29.09;43.21;97089.38;4780761;29;20284;-70
2022/07/22 07:04:00;;;;;;;15.77;7.73;;;;;;;29.35;43.37;97098.59;4779676;29;20687;-71
2022/07/22 07:06:27;;;;;;;9.97;6.47;;;;;;;29.22;43.13;97092.28;4780116;29;20219;-71
2022/07/22 07:09:24;;;;;;;10.90;6.10;;;;;;;29.12;43.51;97087.16;4769085;29;20295;-71
2022/07/22 07:12:07;;;;;;;11.60;6.43;;;;;;;29.00;43.79;97087.84;4765434;29;20215;-71
2022/07/22 07:15:12;;;;;;;6.60;5.63;;;;;;;28.86;43.98;97084.97;4763341;29;20207;-71
2022/07/22 07:17:53;;;;;;;8.83;6.70;;;;;;;29.15;44.00;97080.66;4764869;30;20321;-71
2022/07/22 07:20:20;;;;;;;11.97;6.30;;;;;;;29.44;43.52;97089.50;4781669;29;20207;-71
2022/07/22 07:22:47;;;;;;;10.17;7.03;;;;;;;29.59;43.36;97082.28;4780737;29;20250;-71
2022/07/22 07:25:15;;;;;;;11.10;5.93;;;;;;;29.79;42.53;97077.22;4764955;30;20242;-72
2022/07/22 07:27:52;;;;;;;10.93;6.30;;;;;;;29.98;42.04;97089.13;4764783;29;20706;-72
2022/07/22 07:30:38;;;;;;;15.37;5.80;;;;;;;29.86;41.65;97083.47;4779428;29;20289;-72
2022/07/22 07:33:05;;;;;;;9.20;5.80;;;;;;;29.84;41.18;97084.66;4780142;29;20628;-73
2022/07/22 07:35:33;;;;;;;6.73;5.03;;;;;;;29.79;40.74;97077.22;4764361;29;20703;-72
2022/07/22 07:38:01;;;;;;;9.10;5.20;;;;;;;29.59;41.02;97081.47;4779947;29;20223;-71
2022/07/22 07:40:28;;;;;;;8.07;6.47;;;;;;;29.46;41.81;97074.13;4764431;30;20312;-69
2022/07/22 07:42:56;;;;;;;9.93;6.43;;;;;;;29.74;41.77;97085.78;4779319;29;20245;-70
2022/07/22 07:45:30;;;;;;;10.37;6.37;;;;;;;30.01;40.60;97078.88;4779739;29;20203;-70
2022/07/22 07:47:57;;;;;;;6.37;5.20;;;;;;;30.18;40.06;97080.28;4764155;29;20286;-71
2022/07/22 07:50:24;;;;;;;8.73;5.40;;;;;;;30.43;40.38;97081.59;4779753;29;20218;-71
2022/07/22 07:52:51;;;;;;;10.97;5.57;;;;;;;30.18;40.20;97085.63;4779052;29;20203;-70
2022/07/22 07:55:21;;;;;;;10.33;5.87;;;;;;;30.31;40.77;97080.44;4779855;29;20232;-70
2022/07/22 07:57:49;;;;;;;10.83;6.37;;;;;;;30.52;40.29;97082.28;4778959;29;20294;-70
2022/07/22 08:00:22;;;;;;;9.23;5.47;;;;;;;30.90;39.56;97085.47;4779305;29;20715;-71
2022/07/22 08:02:49;;;;;;;10.57;6.57;;;;;;;30.89;39.62;97089.16;4764556;30;20637;-71
2022/07/22 08:05:19;;;;;;;11.80;7.07;;;;;;;30.93;39.26;97096.63;4779385;29;20207;-70
2022/07/22 08:07:47;;;;;;;9.00;6.20;;;;;;;31.03;38.84;97074.84;4779769;29;20203;-70
2022/07/22 08:10:15;;;;;;;9.73;7.37;;;;;;;31.30;38.59;97092.72;4764321;29;20298;-71
2022/07/22 08:13:15;;;;;;;7.43;5.80;;;;;;;31.14;38.81;97087.69;4764322;29;20223;-70
2022/07/22 08:16:08;;;;;;;15.60;6.77;;;;;;;31.25;38.09;97087.13;4766024;29;20218;-70
2022/07/22 08:18:36;;;;;;;11.37;6.47;;;;;;;31.17;38.39;97082.75;4764011;30;20207;-72
2022/07/22 08:21:04;;;;;;;7.60;5.40;;;;;;;31.24;38.39;97077.44;4779246;29;20239;-71
2022/07/22 08:23:49;;;;;;;10.38;5.90;;;;;;;31.28;37.80;97071.47;4764525;29;20207;-71
2022/07/22 08:26:16;;;;;;;7.53;5.80;;;;;;;31.38;37.50;97071.13;4780263;29;21039;-71
2022/07/22 08:28:44;;;;;;;8.67;6.80;;;;;;;31.46;37.56;97065.63;4783301;29;20797;-72
2022/07/22 08:31:11;;;;;;;9.43;5.80;;;;;;;31.55;36.80;97069.78;4782988;29;20211;-70
2022/07/22 08:33:38;;;;;;;10.00;5.88;;;;;;;31.79;36.12;97081.81;4783942;29;20219;-72
2022/07/22 08:36:06;;;;;;;13.63;6.57;;;;;;;31.89;35.97;97079.59;4781727;29;20276;-73
2022/07/22 08:38:34;;;;;;;12.13;8.57;;;;;;;31.52;37.18;97088.09;4767655;30;20668;-70
2022/07/22 08:41:03;;;;;;;12.52;6.45;;;;;;;31.06;38.38;97077.13;4782162;29;20638;-71
2022/07/22 08:43:35;;;;;;;7.65;5.35;;;;;;;31.15;35.52;97073.28;4781975;29;20219;-70
2022/07/22 08:46:03;;;;;;;8.87;5.20;;;;;;;31.45;34.09;97072.00;4767362;29;20217;-70
2022/07/22 08:48:41;;;;;;;13.30;5.68;;;;;;;31.66;33.05;97081.75;4781619;29;20272;-72
2022/07/22 08:51:24;;;;;;;9.65;4.85;;;;;;;31.71;31.85;97069.44;4782494;29;20235;-71
2022/07/22 08:54:21;;;;;;;7.35;4.65;;;;;;;31.52;32.37;97069.34;4773563;29;20206;-72
2022/07/22 08:56:50;;;;;;;9.77;4.43;;;;;;;31.53;31.98;97069.16;4781644;29;20219;-72
2022/07/22 08:59:18;;;;;;;9.77;4.65;;;;;;;31.50;31.36;97077.59;4781994;29;20215;-72
2022/07/22 09:02:08;;;;;;;13.55;5.05;;;;;;;31.46;31.49;97079.03;4782488;29;20736;-71
2022/07/22 09:04:56;;;;;;;6.95;4.40;;;;;;;31.64;31.32;97078.47;4783390;29;20252;-70
2022/07/22 09:07:38;;;;;;;5.23;4.33;;;;;;;31.66;31.61;97074.56;4782190;29;20272;-71
2022/07/22 09:10:15;;;;;;;10.15;4.82;;;;;;;31.48;32.19;97078.81;4766587;29;20238;-70
2022/07/22 09:13:04;;;;;;;10.43;4.95;;;;;;;31.71;31.49;97063.25;4783016;29;20335;-70
2022/07/22 09:15:52;;;;;;;5.70;4.82;;;;;;;31.91;31.64;97081.03;4780981;29;20207;-70
2022/07/22 09:18:51;;;;;;;8.05;5.03;;;;;;;32.01;31.71;97081.50;4764739;30;20242;-73
2022/07/22 09:21:40;;;;;;;9.13;4.40;;;;;;;32.08;31.97;97086.88;4765347;30;20316;-72
2022/07/22 09:24:31;;;;;;;7.60;4.72;;;;;;;31.99;31.68;97059.44;4749205;30;20208;-71
2022/07/22 09:27:27;;;;;;;8.20;4.22;;;;;;;32.19;31.48;97082.78;4748672;30;20199;-73
2022/07/22 09:30:31;;;;;;;8.63;4.63;;;;;;;32.27;31.55;97085.25;4717253;30;20753;-71
2022/07/22 09:33:07;;;;;;;5.55;4.00;;;;;;;31.85;31.13;97071.13;4745943;30;20204;-71
2022/07/22 09:35:39;;;;;;;7.25;4.93;;;;;;;32.04;31.59;97086.47;4763272;30;20200;-71
2022/07/22 09:38:13;;;;;;;6.45;3.80;;;;;;;32.06;31.51;97075.53;4748846;30;20719;-71
2022/07/22 09:40:42;;;;;;;6.60;4.57;;;;;;;32.12;31.35;97088.13;4747715;30;20216;-72
2022/07/22 09:43:12;;;;;;;6.30;4.45;;;;;;;31.98;30.66;97084.56;4763641;30;20419;-71
2022/07/22 09:45:49;;;;;;;8.82;4.20;;;;;;;31.90;31.65;97082.03;4748921;30;20225;-72
2022/07/22 09:48:20;;;;;;;7.57;4.00;;;;;;;31.90;31.05;97094.66;4762984;30;20291;-71
2022/07/22 09:50:56;;;;;;;5.82;4.05;;;;;;;31.80;31.19;97062.84;4764790;30;20254;-71
2022/07/22 09:53:33;;;;;;;6.80;4.25;;;;;;;32.23;30.82;97090.22;4748590;30;20215;-71
2022/07/22 09:56:06;;;;;;;6.43;4.38;;;;;;;32.35;31.52;97093.09;4748535;30;20322;-71
2022/07/22 09:58:34;;;;;;;9.73;4.50;;;;;;;32.36;30.92;97098.25;4762841;30;20614;-70
2022/07/22 10:01:05;;;;;;;6.60;4.47;;;;;;;32.31;31.41;97075.78;4762900;30;20562;-71
2022/07/22 10:03:40;;;;;;;7.18;4.40;;;;;;;32.46;30.71;97087.19;4748239;30;20236;-72
2022/07/22 10:06:10;;;;;;;6.03;4.10;;;;;;;32.42;31.11;97086.72;4762395;30;20303;-71
2022/07/22 10:08:38;;;;;;;10.73;4.43;;;;;;;32.34;31.45;97091.44;4763409;30;20251;-70
2022/07/22 10:11:07;;;;;;;6.55;4.05;;;;;;;32.47;31.16;97076.25;4764426;30;20300;-71
2022/07/22 10:13:38;;;;;;;8.48;4.35;;;;;;;32.23;30.64;97071.44;4748335;30;20204;-70
2022/07/22 10:16:07;;;;;;;7.53;3.90;;;;;;;32.34;31.01;97076.19;4749015;30;20727;-71
2022/07/22 10:18:37;;;;;;;5.57;3.83;;;;;;;32.48;30.21;97071.72;4780688;29;20649;-72
2022/07/22 10:21:07;;;;;;;7.28;4.28;;;;;;;32.40;30.60;97077.22;4766220;29;20238;-71
2022/07/22 10:23:36;;;;;;;5.32;4.13;;;;;;;32.35;30.51;97083.22;4781992;30;20231;-72
2022/07/22 10:26:04;;;;;;;9.70;4.30;;;;;;;32.39;29.48;97070.22;4780733;29;20207;-72
2022/07/22 10:28:35;;;;;;;5.40;3.70;;;;;;;32.54;29.91;97081.59;4765668;30;20692;-72
2022/07/22 10:31:18;;;;;;;8.40;4.60;;;;;;;32.66;29.89;97074.59;4782451;29;20264;-72
2022/07/22 10:33:49;;;;;;;4.32;3.58;;;;;;;32.63;30.42;97069.63;4782364;30;20221;-72
2022/07/22 10:36:34;;;;;;;8.32;4.40;;;;;;;32.51;28.96;97063.22;4781566;29;20735;-72
2022/07/22 10:39:03;;;;;;;4.50;3.38;;;;;;;32.61;28.09;97083.25;4780770;29;20211;-71
2022/07/22 10:41:39;;;;;;;5.32;3.85;;;;;;;32.54;28.96;97070.88;4781991;29;20588;-72
2022/07/22 10:44:07;;;;;;;6.82;4.28;;;;;;;32.64;29.89;97076.66;4781370;29;20291;-72
2022/07/22 10:47:03;;;;;;;6.40;4.80;;;;;;;32.72;30.50;97073.75;4782045;29;20225;-72
2022/07/22 10:49:30;;;;;;;7.68;5.05;;;;;;;32.74;30.79;97072.53;4773697;29;20219;-71
2022/07/22 10:52:10;;;;;;;9.05;4.53;;;;;;;32.72;29.96;97071.06;4781734;29;20628;-72
2022/07/22 10:55:18;;;;;;;7.60;4.72;;;;;;;32.86;30.28;97072.72;4781870;29;20210;-70
2022/07/22 10:57:45;;;;;;;5.53;4.43;;;;;;;33.09;30.27;97073.13;4780948;29;20238;-72
2022/07/22 11:00:13;;;;;;;6.15;4.85;;;;;;;33.18;30.19;97079.09;4780437;29;20677;-70
2022/07/22 11:02:40;;;;;;;6.20;4.28;;;;;;;33.11;30.16;97071.03;4780930;29;20238;-70
2022/07/22 11:05:08;;;;;;;10.45;4.93;;;;;;;33.25;30.77;97072.66;4781226;29;20212;-72
2022/07/22 11:07:46;;;;;;;6.13;4.60;;;;;;;33.15;30.32;97064.22;4765221;30;20624;-71
2022/07/22 11:10:19;;;;;;;7.10;4.63;;;;;;;33.27;30.68;97080.50;4781008;29;20218;-73
2022/07/22 11:12:49;;;;;;;7.28;4.40;;;;;;;33.31;30.37;97066.44;4781510;29;20207;-71
2022/07/22 11:15:17;;;;;;;7.40;4.40;;;;;;;33.35;30.55;97083.78;4780971;29;20600;-74
2022/07/22 11:17:44;;;;;;;6.40;4.40;;;;;;;33.17;30.56;97067.53;4781378;29;20235;-72
2022/07/22 11:20:13;;;;;;;7.00;4.60;;;;;;;33.25;30.24;97064.59;4781419;29;20728;-71
2022/07/22 11:22:40;;;;;;;7.47;4.45;;;;;;;33.52;29.94;97085.00;4780983;29;20227;-72
2022/07/22 11:25:10;;;;;;;8.10;4.68;;;;;;;33.45;30.00;97083.31;4781603;29;20223;-73
2022/07/22 11:27:37;;;;;;;6.80;4.53;;;;;;;33.06;30.64;97076.22;4780860;29;20207;-72
2022/07/22 11:30:06;;;;;;;7.53;4.97;;;;;;;33.19;30.81;97064.63;4765539;30;20199;-72
2022/07/22 11:32:42;;;;;;;5.15;4.65;;;;;;;33.20;30.94;97080.50;4781224;29;20213;-72
2022/07/22 11:35:13;;;;;;;6.97;5.22;;;;;;;33.23;30.60;97071.22;4781083;29;20207;-72
2022/07/22 11:37:40;;;;;;;6.10;3.83;;;;;;;33.44;30.03;97069.09;4764814;30;20279;-71
2022/07/22 11:40:09;;;;;;;6.38;4.47;;;;;;;33.41;29.90;97071.34;4779586;29;20219;-71
2022/07/22 11:42:36;;;;;;;6.53;4.43;;;;;;;33.55;29.84;97070.31;4781644;29;20262;-72
2022/07/22 11:45:04;;;;;;;8.02;4.50;;;;;;;33.34;30.19;97055.28;4780639;29;20214;-72
2022/07/22 11:47:31;;;;;;;7.72;4.55;;;;;;;33.46;30.67;97064.31;4781303;29;20732;-72